Terminal Aerodrome Forecast
Issued by NWS Portland, ME

Home | Current Version | Previous Version | Text Only | Print | Product List | Glossary On
Versions: 1 2 3 4 5 6 7 8 9 10 11 12 13 14 15 16 17 18 19 20 21 22 23 24
000
FTUS41 KGYX 240500
TAFCON
TAF
KCON 240522Z 2406/2506 32010G21KT P6SM BKN050
     FM241300 31022G32KT P6SM SCT050 BKN080
     FM241600 32024G35KT P6SM SCT050
     FM250200 33009KT P6SM SKC=

USA.gov is the U.S. government's official web portal to all federal, state and local government web resources and services.